createdAt,value
2016-10-12T00:01:31.627Z,0
2016-10-12T00:06:31.577Z,0
2016-10-12T00:11:31.531Z,0
2016-10-12T00:16:31.476Z,0
2016-10-12T00:21:31.423Z,0
2016-10-12T00:26:31.362Z,0
2016-10-12T00:31:31.010Z,0
2016-10-12T00:36:30.947Z,0
2016-10-12T00:41:31.201Z,0
2016-10-12T00:46:30.849Z,0
2016-10-12T00:51:30.481Z,0
2016-10-12T00:56:30.725Z,0
2016-10-12T01:01:30.991Z,0
2016-10-12T01:06:30.944Z,0
2016-10-12T01:11:30.570Z,0
2016-10-12T01:16:30.820Z,0
2016-10-12T01:21:30.763Z,0
2016-10-12T01:26:30.408Z,0
2016-10-12T01:31:30.655Z,0
2016-10-12T01:36:30.303Z,0
2016-10-12T01:41:30.559Z,0
2016-10-12T01:46:30.197Z,0
2016-10-12T01:51:30.451Z,0
2016-10-12T01:56:30.389Z,0
2016-10-12T02:01:30.327Z,0
2016-10-12T02:06:30.282Z,0
2016-10-12T02:11:30.217Z,0
2016-10-12T02:16:30.153Z,0
2016-10-12T02:21:30.102Z,0
2016-10-12T02:26:30.057Z,0
2016-10-12T02:31:30.007Z,0
2016-10-12T02:36:29.943Z,0
2016-10-12T02:41:29.887Z,0
2016-10-12T02:46:29.828Z,0
2016-10-12T02:51:29.775Z,0
2016-10-12T02:56:29.724Z,0
2016-10-12T03:01:29.362Z,0
2016-10-12T03:06:29.298Z,0
2016-10-12T03:11:29.556Z,0
2016-10-12T03:16:29.196Z,0
2016-10-12T03:21:29.438Z,0
2016-10-12T03:26:29.378Z,0
2016-10-12T03:31:29.322Z,0
2016-10-12T03:36:29.272Z,0
2016-10-12T03:41:29.212Z,0
2016-10-12T03:46:28.855Z,0
2016-10-12T03:51:29.098Z,0
2016-10-12T03:56:29.041Z,0
2016-10-12T04:01:28.686Z,0
2016-10-12T04:06:28.331Z,0
2016-10-12T04:11:28.874Z,0
2016-10-12T04:16:28.504Z,0
2016-10-12T04:21:28.454Z,0
2016-10-12T04:26:28.700Z,0
2016-10-12T04:31:28.644Z,0
2016-10-12T04:36:28.580Z,0
2016-10-12T04:41:28.538Z,0
2016-10-12T04:46:28.183Z,0
2016-10-12T04:51:28.413Z,0
2016-10-12T04:56:28.361Z,0
2016-10-12T05:01:27.997Z,0
2016-10-12T05:06:28.235Z,0
2016-10-12T05:11:28.182Z,0
2016-10-12T05:16:28.132Z,0
2016-10-12T05:21:28.082Z,0
2016-10-12T05:26:27.408Z,0
2016-10-12T05:31:27.960Z,0
2016-10-12T05:36:27.618Z,0
2016-10-12T05:41:27.834Z,0
2016-10-12T05:46:27.805Z,0
2016-10-12T05:51:27.734Z,0
2016-10-12T05:56:27.360Z,0
2016-10-12T06:01:27.318Z,0
2016-10-12T06:06:27.560Z,0
2016-10-12T06:11:27.194Z,0
2016-10-12T06:16:27.136Z,0
2016-10-12T06:21:27.074Z,0
2016-10-12T06:26:27.022Z,0
2016-10-12T06:31:27.275Z,0
2016-10-12T06:36:27.219Z,0
2016-10-12T06:41:27.165Z,0
2016-10-12T06:46:26.807Z,0
2016-10-12T06:51:26.759Z,0
2016-10-12T06:56:27.009Z,8
2016-10-12T07:01:26.945Z,8
2016-10-12T07:06:26.893Z,8
2016-10-12T07:11:26.845Z,8
2016-10-12T07:16:26.784Z,8
2016-10-12T07:21:26.732Z,8
2016-10-12T07:26:26.373Z,8
2016-10-12T07:31:26.009Z,8
2016-10-12T07:36:26.273Z,8
2016-10-12T07:41:26.204Z,12
2016-10-12T07:46:26.463Z,8
2016-10-12T07:51:26.098Z,8
2016-10-12T07:56:26.360Z,4
2016-10-12T08:01:25.998Z,8
2016-10-12T08:06:25.629Z,4
2016-10-12T08:11:25.890Z,4
2016-10-12T08:16:26.144Z,4
2016-10-12T08:21:25.780Z,8
2016-10-12T08:26:26.024Z,12
2016-10-12T08:31:25.972Z,12
2016-10-12T08:36:25.310Z,8
2016-10-12T08:41:25.559Z,4
2016-10-12T08:46:25.799Z,8
2016-10-12T08:51:25.455Z,8
2016-10-12T08:56:25.708Z,12
2016-10-12T09:01:25.355Z,8
2016-10-12T09:06:25.597Z,12
2016-10-12T09:11:25.229Z,8
2016-10-12T09:16:24.869Z,16
2016-10-12T09:21:25.123Z,24
2016-10-12T09:26:25.095Z,16
2016-10-12T09:31:25.015Z,12
2016-10-12T09:36:24.651Z,12
2016-10-12T09:41:25.212Z,8
2016-10-12T09:46:24.859Z,8
2016-10-12T09:51:24.790Z,12
2016-10-12T09:56:24.743Z,8
2016-10-12T10:01:24.988Z,4
2016-10-12T10:06:24.623Z,4
2016-10-12T10:11:24.574Z,12
2016-10-12T10:16:24.518Z,8
2016-10-12T10:21:24.773Z,8
2016-10-12T10:26:24.417Z,12
2016-10-12T10:31:24.353Z,12
2016-10-12T10:36:24.307Z,12
2016-10-12T10:41:24.543Z,12
2016-10-12T10:46:24.492Z,12
2016-10-12T10:51:24.150Z,8
2016-10-12T10:56:24.380Z,8
2016-10-12T11:01:24.350Z,12
2016-10-12T11:06:23.992Z,28
2016-10-12T11:11:23.930Z,52
2016-10-12T11:16:24.188Z,24
2016-10-12T11:21:24.122Z,16
2016-10-12T11:26:23.764Z,16
2016-10-12T11:31:23.710Z,24
2016-10-12T11:36:23.965Z,20
2016-10-12T11:41:23.910Z,24
2016-10-12T11:46:23.550Z,20
2016-10-12T11:51:23.808Z,12
2016-10-12T11:56:23.756Z,12
2016-10-12T12:01:23.393Z,16
2016-10-12T12:06:23.484Z,16
2016-10-12T12:11:23.285Z,16
2016-10-12T12:16:23.545Z,16
2016-10-12T12:21:22.866Z,16
2016-10-12T12:26:23.123Z,20
2016-10-12T12:31:23.071Z,24
2016-10-12T12:36:23.327Z,12
2016-10-12T12:41:22.658Z,8
2016-10-12T12:46:22.910Z,20
2016-10-12T12:51:23.147Z,24
2016-10-12T12:56:22.795Z,20
2016-10-12T13:01:22.442Z,20
2016-10-12T13:06:22.983Z,16
2016-10-12T13:11:22.937Z,16
2016-10-12T13:16:22.882Z,12
2016-10-12T13:21:22.230Z,12
2016-10-12T13:26:22.775Z,20
2016-10-12T13:31:22.416Z,12
2016-10-12T13:36:22.366Z,8
2016-10-12T13:41:22.610Z,12
2016-10-12T13:46:22.259Z,16
2016-10-12T13:51:22.500Z,12
2016-10-12T13:56:22.455Z,16
2016-10-12T14:01:22.399Z,16
2016-10-12T14:06:22.045Z,16
2016-10-12T14:11:22.001Z,16
2016-10-12T14:16:22.234Z,16
2016-10-12T14:21:22.185Z,8
2016-10-12T14:26:21.821Z,8
2016-10-12T14:31:21.764Z,12
2016-10-12T14:36:22.020Z,12
2016-10-12T14:41:21.968Z,12
2016-10-12T14:46:21.615Z,16
2016-10-12T14:51:21.267Z,20
2016-10-12T14:56:21.504Z,20
2016-10-12T15:01:21.451Z,20
2016-10-12T15:06:21.413Z,16
2016-10-12T15:11:21.351Z,12
2016-10-12T15:16:21.611Z,8
2016-10-12T15:21:21.249Z,8
2016-10-12T15:26:21.518Z,8
2016-10-12T15:31:22.692Z,8
2016-10-12T15:36:21.103Z,8
2016-10-12T15:41:21.338Z,4
2016-10-12T15:46:21.044Z,4
2016-10-12T15:51:20.932Z,8
2016-10-12T15:56:20.570Z,4
2016-10-12T16:01:21.125Z,8
2016-10-12T16:06:20.758Z,8
2016-10-12T16:11:21.020Z,4
2016-10-12T16:16:20.665Z,4
2016-10-12T16:21:20.609Z,4
2016-10-12T16:26:20.862Z,4
2016-10-12T16:31:20.510Z,4
2016-10-12T16:36:20.772Z,4
2016-10-12T16:41:20.406Z,8
2016-10-12T16:46:20.367Z,4
2016-10-12T16:51:20.614Z,4
2016-10-12T16:56:20.564Z,8
2016-10-12T17:01:20.219Z,4
2016-10-12T17:06:19.863Z,4
2016-10-12T17:11:20.414Z,4
2016-10-12T17:16:20.070Z,4
2016-10-12T17:21:20.033Z,4
2016-10-12T17:26:19.673Z,4
2016-10-12T17:31:19.937Z,4
2016-10-12T17:36:20.187Z,4
2016-10-12T17:41:19.829Z,4
2016-10-12T17:46:19.778Z,4
2016-10-12T17:51:19.726Z,4
2016-10-12T17:56:19.998Z,4
2016-10-12T18:01:19.636Z,4
2016-10-12T18:06:19.890Z,4
2016-10-12T18:11:19.554Z,4
2016-10-12T18:16:19.800Z,4
2016-10-12T18:21:19.440Z,4
2016-10-12T18:26:19.700Z,4
2016-10-12T18:31:19.652Z,4
2016-10-12T18:36:19.605Z,4
2016-10-12T18:41:19.553Z,4
2016-10-12T18:46:19.501Z,4
2016-10-12T18:51:18.839Z,4
2016-10-12T18:56:19.090Z,4
2016-10-12T19:01:19.055Z,4
2016-10-12T19:06:19.304Z,4
2016-10-12T19:11:18.949Z,4
2016-10-12T19:16:19.199Z,4
2016-10-12T19:21:19.156Z,4
2016-10-12T19:26:18.797Z,4
2016-10-12T19:31:19.041Z,4
2016-10-12T19:36:18.692Z,4
2016-10-12T19:41:18.630Z,4
2016-10-12T19:46:18.604Z,4
2016-10-12T19:51:18.845Z,4
2016-10-12T19:56:18.798Z,4
2016-10-12T20:01:18.746Z,4
2016-10-12T20:06:18.694Z,4
2016-10-12T20:11:18.353Z,4
2016-10-12T20:16:18.607Z,4
2016-10-12T20:21:18.559Z,4
2016-10-12T20:26:18.505Z,8
2016-10-12T20:31:18.170Z,4
2016-10-12T20:36:18.415Z,8
2016-10-12T20:41:18.360Z,8
2016-10-12T20:46:17.709Z,8
2016-10-12T20:51:17.352Z,8
2016-10-12T20:56:17.923Z,8
2016-10-12T21:01:17.854Z,8
2016-10-12T21:06:17.510Z,8
2016-10-12T21:11:18.082Z,8
2016-10-12T21:16:17.412Z,8
2016-10-12T21:21:17.680Z,8
2016-10-12T21:26:17.618Z,8
2016-10-12T21:31:17.880Z,8
2016-10-12T21:36:17.534Z,8
2016-10-12T21:41:17.789Z,8
2016-10-12T21:46:17.432Z,4
2016-10-12T21:51:17.695Z,4
2016-10-12T21:56:17.032Z,4
2016-10-12T22:01:17.606Z,4
2016-10-12T22:06:17.539Z,0
2016-10-12T22:11:17.487Z,0
2016-10-12T22:16:17.131Z,0
2016-10-12T22:21:17.379Z,0
2016-10-12T22:26:17.029Z,0
2016-10-12T22:31:16.667Z,0
2016-10-12T22:36:16.618Z,0
2016-10-12T22:41:17.181Z,0
2016-10-12T22:46:16.822Z,0
2016-10-12T22:51:17.077Z,0
2016-10-12T22:56:17.014Z,0
2016-10-12T23:01:16.967Z,0
2016-10-12T23:06:16.916Z,0
2016-10-12T23:11:16.560Z,0
2016-10-12T23:16:16.808Z,0
2016-10-12T23:21:16.454Z,0
2016-10-12T23:26:16.698Z,0
2016-10-12T23:31:16.644Z,0
2016-10-12T23:36:16.584Z,0
2016-10-12T23:41:16.532Z,0
2016-10-12T23:46:16.184Z,0
2016-10-12T23:51:15.820Z,0
2016-10-12T23:56:16.374Z,0
